Time;durP1;ratioP1;P1;durP2;ratioP2;P2;SDS_P1;SDS_P2;PMS_P1;PMS_P2;Temp;Humidity;BMP_temperature;BMP_pressure;BME280_temperature;BME280_humidity;BME280_pressure;Samples;Min_cycle;Max_cycle;Signal;HPM_P1;HPM_P2
2021/03/03 00:01:31;;;;;;;25.63;17.93;;;6.20;97.80;;;;;;5030555;28;20215;-74
2021/03/03 00:03:57;;;;;;;23.80;18.40;;;6.20;97.70;;;;;;5019863;28;20388;-74
2021/03/03 00:06:22;;;;;;;25.07;17.07;;;6.10;97.80;;;;;;5027306;28;20214;-74
2021/03/03 00:08:48;;;;;;;25.13;17.90;;;6.00;98.00;;;;;;5028029;28;20289;-74
2021/03/03 00:11:14;;;;;;;28.07;17.47;;;5.90;98.00;;;;;;5026375;28;20243;-74
2021/03/03 00:13:39;;;;;;;30.17;17.67;;;5.90;97.90;;;;;;5019150;28;20280;-74
2021/03/03 00:16:05;;;;;;;26.23;18.10;;;5.80;97.70;;;;;;5028202;28;20275;-74
2021/03/03 00:18:31;;;;;;;28.47;16.90;;;5.80;97.70;;;;;;5022289;28;20258;-74
2021/03/03 00:20:57;;;;;;;23.33;16.63;;;5.60;97.50;;;;;;5021302;28;20646;-74
2021/03/03 00:23:23;;;;;;;23.27;16.93;;;5.50;97.90;;;;;;5018528;28;20299;-74
2021/03/03 00:25:48;;;;;;;22.27;16.07;;;5.40;98.30;;;;;;5025025;28;20260;-73
2021/03/03 00:28:14;;;;;;;23.97;17.77;;;5.30;98.70;;;;;;5022238;28;20184;-73
2021/03/03 00:30:39;;;;;;;24.83;17.80;;;5.30;98.60;;;;;;5016203;28;20240;-74
2021/03/03 00:33:05;;;;;;;24.70;18.23;;;5.30;99.50;;;;;;5021766;28;20224;-74
2021/03/03 00:35:31;;;;;;;23.77;17.27;;;5.30;99.40;;;;;;5012679;28;20207;-74
2021/03/03 00:37:56;;;;;;;30.77;17.53;;;5.30;99.60;;;;;;5022471;28;20189;-74
2021/03/03 00:40:22;;;;;;;23.00;17.10;;;5.30;99.50;;;;;;5029367;28;20237;-74
2021/03/03 00:42:48;;;;;;;22.63;17.70;;;5.20;98.80;;;;;;5017450;28;20187;-74
2021/03/03 00:45:13;;;;;;;31.90;17.83;;;5.30;99.40;;;;;;5020673;28;20207;-73
2021/03/03 00:47:39;;;;;;;27.20;17.10;;;5.30;99.30;;;;;;5031442;28;20717;-74
2021/03/03 00:50:05;;;;;;;21.53;17.03;;;5.30;98.50;;;;;;5029862;28;20917;-74
2021/03/03 00:52:31;;;;;;;24.07;17.67;;;5.20;98.70;;;;;;5019469;28;20185;-74
2021/03/03 00:54:56;;;;;;;25.70;17.83;;;5.30;98.70;;;;;;5026367;28;20208;-74
2021/03/03 00:57:22;;;;;;;23.37;16.73;;;5.20;98.60;;;;;;5028021;28;20717;-74
2021/03/03 00:59:48;;;;;;;27.17;16.80;;;5.20;98.70;;;;;;5023094;28;20184;-74
2021/03/03 01:02:13;;;;;;;22.97;16.97;;;5.20;99.10;;;;;;5023128;28;20185;-74
2021/03/03 01:04:39;;;;;;;22.80;17.60;;;5.20;99.20;;;;;;5020810;28;20194;-74
2021/03/03 01:07:04;;;;;;;23.17;17.13;;;5.20;99.90;;;;;;5017475;28;20205;-74
2021/03/03 01:09:30;;;;;;;25.43;17.90;;;5.20;99.90;;;;;;5018700;28;20176;-74
2021/03/03 01:11:56;;;;;;;24.30;16.50;;;5.20;99.90;;;;;;5022578;28;20191;-74
2021/03/03 01:14:22;;;;;;;27.83;19.30;;;5.20;99.70;;;;;;5018363;28;20210;-74
2021/03/03 01:16:52;;;;;;;29.70;18.13;;;5.20;99.90;;;;;;5031357;28;20185;-74
2021/03/03 01:19:19;;;;;;;24.53;17.17;;;5.20;99.90;;;;;;5021822;28;20193;-74
2021/03/03 01:21:44;;;;;;;26.43;17.53;;;5.20;99.60;;;;;;5020046;28;20275;-74
2021/03/03 01:24:10;;;;;;;26.33;18.10;;;5.20;99.50;;;;;;5017979;28;20693;-74
2021/03/03 01:26:36;;;;;;;23.00;18.03;;;5.20;99.90;;;;;;5024164;28;20182;-74
2021/03/03 01:29:02;;;;;;;25.23;18.07;;;5.20;99.90;;;;;;5013695;28;20253;-74
2021/03/03 01:31:28;;;;;;;24.67;17.77;;;5.20;99.90;;;;;;5016851;28;20191;-74
2021/03/03 01:33:53;;;;;;;23.47;16.93;;;5.20;99.90;;;;;;5023828;28;20215;-74
2021/03/03 01:36:19;;;;;;;27.30;17.53;;;5.20;99.90;;;;;;5013574;28;20190;-74
2021/03/03 01:38:45;;;;;;;24.90;17.00;;;5.10;99.80;;;;;;5018166;28;20538;-74
2021/03/03 01:41:10;;;;;;;24.93;17.27;;;5.10;99.30;;;;;;5017566;28;20268;-74
2021/03/03 01:43:36;;;;;;;23.07;17.67;;;5.00;98.90;;;;;;5017941;28;20187;-74
2021/03/03 01:46:02;;;;;;;26.13;18.27;;;5.00;99.70;;;;;;5024104;28;20556;-74
2021/03/03 01:48:27;;;;;;;23.93;16.27;;;4.90;99.90;;;;;;5032879;28;20180;-74
2021/03/03 01:50:53;;;;;;;22.37;16.30;;;4.90;99.90;;;;;;5022829;28;20245;-74
2021/03/03 01:53:19;;;;;;;25.47;17.10;;;4.90;99.90;;;;;;5018110;28;20191;-74
2021/03/03 01:55:45;;;;;;;24.07;17.50;;;4.90;99.90;;;;;;5022664;28;20282;-74
2021/03/03 01:58:11;;;;;;;28.30;16.87;;;4.90;99.90;;;;;;5033332;28;21061;-74
2021/03/03 02:00:37;;;;;;;27.20;17.93;;;4.90;99.90;;;;;;5025123;28;20759;-74
2021/03/03 02:03:04;;;;;;;23.60;17.87;;;4.90;99.90;;;;;;5026368;28;20179;-74
2021/03/03 02:05:30;;;;;;;25.10;16.93;;;4.80;99.90;;;;;;5029515;28;20229;-74
2021/03/03 02:08:11;;;;;;;26.07;16.87;;;4.80;99.90;;;;;;5021346;28;20216;-74
2021/03/03 02:11:28;;;;;;;30.17;17.53;;;4.70;99.70;;;;;;5029801;28;20182;-74
2021/03/03 02:14:03;;;;;;;24.17;17.43;;;4.70;99.90;;;;;;5012008;28;20769;-74
2021/03/03 02:16:30;;;;;;;27.47;16.97;;;4.70;99.90;;;;;;5015369;28;20197;-74
2021/03/03 02:18:59;;;;;;;24.90;16.93;;;4.60;99.90;;;;;;5011237;28;20189;-74
2021/03/03 02:21:36;;;;;;;24.93;18.17;;;4.60;99.90;;;;;;5007266;28;20730;-74
2021/03/03 02:24:07;;;;;;;21.27;16.00;;;4.70;99.90;;;;;;5004300;28;20276;-74
2021/03/03 02:26:34;;;;;;;24.70;17.27;;;4.70;99.90;;;;;;5004701;28;20266;-73
2021/03/03 02:29:04;;;;;;;23.77;16.43;;;4.70;99.90;;;;;;5011437;28;20185;-73
2021/03/03 02:31:32;;;;;;;24.63;16.67;;;4.60;99.90;;;;;;5009871;28;20181;-74
2021/03/03 02:34:00;;;;;;;24.33;17.67;;;4.70;99.90;;;;;;5008992;28;20834;-74
2021/03/03 02:36:26;;;;;;;24.73;16.60;;;4.70;99.90;;;;;;5012782;28;20195;-74
2021/03/03 02:38:52;;;;;;;20.80;16.33;;;4.80;99.90;;;;;;5013340;28;20209;-74
2021/03/03 02:41:20;;;;;;;22.47;17.17;;;4.80;99.90;;;;;;5016358;28;20236;-74
2021/03/03 02:43:47;;;;;;;28.37;17.63;;;4.80;99.90;;;;;;5009149;28;20213;-74
2021/03/03 02:46:13;;;;;;;24.27;17.07;;;4.70;99.90;;;;;;5010042;28;20191;-74
2021/03/03 02:48:39;;;;;;;26.57;16.97;;;4.70;99.90;;;;;;5010255;28;20189;-74
2021/03/03 02:51:06;;;;;;;24.40;17.97;;;4.70;99.90;;;;;;5028166;28;20223;-73
2021/03/03 02:53:31;;;;;;;22.57;17.17;;;4.70;99.90;;;;;;5025453;28;20186;-74
2021/03/03 02:55:57;;;;;;;23.77;17.90;;;4.70;99.90;;;;;;5024346;28;20203;-74
2021/03/03 02:58:23;;;;;;;20.70;16.30;;;4.70;99.90;;;;;;5028276;28;20209;-74
2021/03/03 03:00:54;;;;;;;23.70;16.67;;;4.70;99.90;;;;;;5026006;28;20203;-74
2021/03/03 03:03:23;;;;;;;24.43;17.63;;;4.80;99.90;;;;;;5022857;28;20194;-74
2021/03/03 03:06:14;;;;;;;21.60;17.00;;;4.70;99.90;;;;;;5024025;28;20197;-74
2021/03/03 03:08:40;;;;;;;24.30;17.90;;;4.80;99.90;;;;;;5023403;28;20199;-74
2021/03/03 03:11:09;;;;;;;23.37;18.37;;;4.70;99.90;;;;;;5025843;28;20198;-74
2021/03/03 03:13:38;;;;;;;24.13;17.77;;;4.70;99.90;;;;;;5025432;28;20661;-74
2021/03/03 03:16:04;;;;;;;29.23;18.17;;;4.60;99.90;;;;;;5025787;28;20185;-74
2021/03/03 03:18:50;;;;;;;26.43;19.33;;;4.60;99.90;;;;;;5026521;28;20189;-74
2021/03/03 03:21:16;;;;;;;26.63;17.87;;;4.60;99.90;;;;;;5025678;28;20207;-74
2021/03/03 03:23:45;;;;;;;22.07;17.07;;;4.60;99.90;;;;;;5017387;28;20566;-73
2021/03/03 03:26:11;;;;;;;22.50;18.50;;;4.70;99.90;;;;;;5022655;28;20183;-74
2021/03/03 03:28:38;;;;;;;42.87;19.07;;;4.70;99.90;;;;;;5028709;28;20192;-74
2021/03/03 03:31:06;;;;;;;34.73;17.73;;;4.70;99.90;;;;;;5017083;28;20178;-73
2021/03/03 03:33:32;;;;;;;31.97;17.73;;;4.70;99.90;;;;;;5016705;28;20610;-72
2021/03/03 03:35:59;;;;;;;23.50;17.53;;;4.70;99.90;;;;;;5020374;28;20212;-73
2021/03/03 03:38:29;;;;;;;24.93;17.10;;;4.60;99.90;;;;;;5020757;28;20271;-74
2021/03/03 03:40:57;;;;;;;25.43;17.27;;;4.60;99.90;;;;;;5033196;28;20213;-73
2021/03/03 03:43:25;;;;;;;25.63;17.33;;;4.60;99.90;;;;;;5020787;28;20220;-74
2021/03/03 03:45:52;;;;;;;21.63;15.93;;;4.50;99.90;;;;;;5025503;28;20246;-73
2021/03/03 03:48:19;;;;;;;27.13;17.20;;;4.50;99.90;;;;;;5022190;28;20183;-74
2021/03/03 03:50:45;;;;;;;26.10;18.43;;;4.50;99.90;;;;;;5022782;28;20662;-73
2021/03/03 03:53:11;;;;;;;22.13;16.73;;;4.40;99.90;;;;;;5019690;28;20189;-74
2021/03/03 03:55:38;;;;;;;23.30;17.70;;;4.40;99.90;;;;;;5027331;28;20205;-73
2021/03/03 03:58:05;;;;;;;27.20;19.00;;;4.40;99.90;;;;;;5028731;28;20657;-73
2021/03/03 04:00:31;;;;;;;21.30;15.77;;;4.30;99.90;;;;;;5027847;28;20211;-73
2021/03/03 04:02:57;;;;;;;23.43;16.83;;;4.30;99.90;;;;;;5022671;28;20208;-73
2021/03/03 04:05:24;;;;;;;24.97;17.43;;;4.30;99.90;;;;;;5017996;28;20690;-74
2021/03/03 04:07:50;;;;;;;27.27;17.73;;;4.30;99.90;;;;;;5021077;28;20183;-73
2021/03/03 04:10:19;;;;;;;24.97;17.47;;;4.30;99.90;;;;;;5024525;28;20281;-74
2021/03/03 04:12:45;;;;;;;25.27;16.53;;;4.30;99.90;;;;;;5021146;28;20280;-74
2021/03/03 04:15:12;;;;;;;25.80;16.97;;;4.30;99.90;;;;;;5014488;28;20291;-73
2021/03/03 04:17:39;;;;;;;21.77;16.30;;;4.10;99.90;;;;;;5024422;28;20181;-73
2021/03/03 04:20:06;;;;;;;22.80;16.90;;;4.10;99.90;;;;;;5030080;28;20711;-74
2021/03/03 04:22:32;;;;;;;26.93;18.13;;;4.00;99.90;;;;;;5023168;28;20664;-73
2021/03/03 04:24:59;;;;;;;30.73;19.57;;;4.00;99.90;;;;;;5023102;28;20202;-73
2021/03/03 04:27:24;;;;;;;30.53;20.23;;;3.90;99.90;;;;;;5022500;28;20595;-73
2021/03/03 04:29:50;;;;;;;28.40;20.07;;;3.90;99.90;;;;;;5023229;28;20254;-73
2021/03/03 04:32:16;;;;;;;25.40;18.63;;;3.80;99.90;;;;;;5015417;28;20189;-73
2021/03/03 04:34:41;;;;;;;32.03;18.60;;;3.80;99.90;;;;;;5028503;28;20202;-73
2021/03/03 04:37:07;;;;;;;25.27;18.10;;;3.80;99.90;;;;;;5019370;28;20670;-73
2021/03/03 04:39:32;;;;;;;27.90;18.67;;;3.80;99.90;;;;;;5028444;28;20189;-73
2021/03/03 04:41:58;;;;;;;28.30;18.53;;;3.70;99.90;;;;;;5021187;28;20211;-73
2021/03/03 04:44:24;;;;;;;20.33;16.60;;;3.70;99.90;;;;;;5030585;28;20200;-73
2021/03/03 04:46:49;;;;;;;26.03;18.57;;;3.70;99.90;;;;;;5022546;28;20851;-73
2021/03/03 04:49:15;;;;;;;24.57;17.40;;;3.60;99.90;;;;;;5030128;28;20543;-73
2021/03/03 04:51:41;;;;;;;23.07;16.77;;;3.50;99.90;;;;;;5026610;28;20198;-73
2021/03/03 04:54:06;;;;;;;24.60;17.13;;;3.50;99.90;;;;;;5019856;28;20202;-73
2021/03/03 04:56:32;;;;;;;29.20;18.47;;;3.50;99.90;;;;;;5023149;28;20567;-73
2021/03/03 04:58:57;;;;;;;23.20;17.53;;;3.50;99.90;;;;;;5023168;28;20193;-73
2021/03/03 05:01:23;;;;;;;26.83;18.00;;;3.50;99.90;;;;;;5030890;28;20243;-73
2021/03/03 05:03:49;;;;;;;25.87;18.03;;;3.50;99.90;;;;;;5027743;28;20643;-73
2021/03/03 05:06:14;;;;;;;25.80;18.30;;;3.50;99.90;;;;;;5033738;28;20187;-73
2021/03/03 05:08:41;;;;;;;27.53;18.77;;;3.40;99.90;;;;;;5020700;28;20233;-73
2021/03/03 05:11:07;;;;;;;28.53;18.17;;;3.40;99.90;;;;;;5020048;28;20203;-73
2021/03/03 05:13:32;;;;;;;22.20;17.70;;;3.40;99.90;;;;;;5022190;28;20347;-73
2021/03/03 05:15:58;;;;;;;22.70;17.13;;;3.40;99.90;;;;;;5019012;28;20480;-73
2021/03/03 05:18:24;;;;;;;25.83;18.13;;;3.40;99.90;;;;;;5022676;28;20184;-73
2021/03/03 05:20:50;;;;;;;23.90;17.50;;;3.40;99.90;;;;;;5024433;28;20200;-73
2021/03/03 05:23:34;;;;;;;30.50;18.17;;;3.40;99.90;;;;;;5030278;28;20193;-73
2021/03/03 05:26:02;;;;;;;23.57;17.97;;;3.30;99.90;;;;;;5025044;28;20244;-74
2021/03/03 05:28:28;;;;;;;21.43;18.07;;;3.30;99.90;;;;;;5021228;28;20538;-73
2021/03/03 05:30:54;;;;;;;26.70;18.27;;;3.30;99.90;;;;;;5017109;28;20726;-73
2021/03/03 05:33:27;;;;;;;28.10;19.67;;;3.30;99.90;;;;;;5024377;28;20265;-73
2021/03/03 05:35:56;;;;;;;37.20;21.33;;;3.30;99.90;;;;;;5033672;28;20847;-74
2021/03/03 05:38:22;;;;;;;34.07;22.57;;;3.40;99.90;;;;;;5021087;28;20189;-73
2021/03/03 05:40:50;;;;;;;30.17;20.97;;;3.40;99.90;;;;;;5015224;28;20250;-73
2021/03/03 05:43:16;;;;;;;24.33;19.80;;;3.50;99.90;;;;;;5035194;28;20235;-73
2021/03/03 05:45:43;;;;;;;28.00;21.23;;;3.50;99.90;;;;;;5021559;28;20315;-73
2021/03/03 05:48:19;;;;;;;35.10;24.53;;;3.60;99.90;;;;;;5031044;28;20225;-73
2021/03/03 05:50:47;;;;;;;47.47;27.33;;;3.60;99.90;;;;;;5020499;28;20232;-73
2021/03/03 05:53:14;;;;;;;29.80;20.63;;;3.60;99.90;;;;;;5021895;28;20656;-73
2021/03/03 05:55:41;;;;;;;27.97;18.43;;;3.60;99.90;;;;;;5022067;28;20249;-71
2021/03/03 05:58:10;;;;;;;24.87;18.93;;;3.60;99.90;;;;;;5028577;28;20188;-72
2021/03/03 06:00:37;;;;;;;23.37;18.07;;;3.60;99.90;;;;;;5016749;28;20206;-72
2021/03/03 06:03:03;;;;;;;25.17;17.63;;;3.60;99.90;;;;;;5019547;28;20177;-72
2021/03/03 06:05:31;;;;;;;25.93;19.23;;;3.70;99.90;;;;;;5021225;28;20208;-72
2021/03/03 06:07:56;;;;;;;30.17;20.10;;;3.70;99.90;;;;;;5025356;28;20191;-72
2021/03/03 06:10:22;;;;;;;34.60;21.50;;;3.60;99.90;;;;;;5022082;28;20682;-72
2021/03/03 06:12:49;;;;;;;29.73;20.93;;;3.50;99.90;;;;;;5014511;28;20192;-72
2021/03/03 06:15:16;;;;;;;28.10;20.53;;;3.50;99.90;;;;;;5019259;28;20204;-72
2021/03/03 06:17:43;;;;;;;30.57;20.83;;;3.50;99.90;;;;;;5013801;28;20203;-72
2021/03/03 06:20:10;;;;;;;26.93;19.93;;;3.50;99.90;;;;;;5023465;28;20184;-72
2021/03/03 06:22:35;;;;;;;28.83;21.83;;;3.50;99.90;;;;;;5021169;28;20205;-72
2021/03/03 06:25:01;;;;;;;32.13;20.93;;;3.50;99.90;;;;;;5025365;28;20201;-72
2021/03/03 06:27:37;;;;;;;35.57;22.90;;;3.60;99.90;;;;;;5022708;28;20790;-72
2021/03/03 06:30:15;;;;;;;37.27;24.23;;;3.60;99.90;;;;;;5036052;28;20184;-72
2021/03/03 06:32:57;;;;;;;30.03;23.60;;;3.60;99.90;;;;;;5031219;28;20214;-72
2021/03/03 06:35:44;;;;;;;55.13;31.80;;;3.60;99.90;;;;;;5030739;28;20196;-72
2021/03/03 06:38:12;;;;;;;36.97;24.53;;;3.60;99.90;;;;;;5018595;28;20183;-71
2021/03/03 06:40:52;;;;;;;31.93;22.17;;;3.60;99.90;;;;;;5019627;28;20277;-72
2021/03/03 06:43:30;;;;;;;32.23;21.73;;;3.60;99.90;;;;;;5022628;28;20309;-73
2021/03/03 06:46:14;;;;;;;28.17;19.83;;;3.70;99.90;;;;;;5021064;28;20679;-72
2021/03/03 06:48:41;;;;;;;27.97;17.97;;;3.70;99.90;;;;;;5020751;28;20673;-73
2021/03/03 06:51:25;;;;;;;33.50;19.83;;;3.80;99.90;;;;;;5020187;28;20696;-72
2021/03/03 06:53:52;;;;;;;26.40;18.30;;;3.90;99.90;;;;;;5019520;28;20185;-72
2021/03/03 06:56:41;;;;;;;34.00;18.63;;;3.90;99.90;;;;;;5019086;28;20555;-72
2021/03/03 06:59:21;;;;;;;30.73;18.40;;;4.00;99.90;;;;;;5018022;28;20822;-73
2021/03/03 07:01:58;;;;;;;33.20;18.60;;;4.10;99.90;;;;;;5021773;28;21079;-73
2021/03/03 07:04:31;;;;;;;28.83;19.83;;;4.20;99.90;;;;;;5032658;28;20196;-72
2021/03/03 07:06:59;;;;;;;28.40;18.57;;;4.30;99.90;;;;;;5013846;28;20722;-73
2021/03/03 07:09:35;;;;;;;33.27;19.53;;;4.40;99.90;;;;;;5026852;28;20682;-73
2021/03/03 07:12:03;;;;;;;34.70;21.87;;;4.50;99.90;;;;;;5017145;28;20190;-73
2021/03/03 07:14:31;;;;;;;37.93;26.17;;;4.60;99.90;;;;;;5025890;28;20203;-73
2021/03/03 07:17:17;;;;;;;39.67;27.53;;;4.70;99.90;;;;;;5022004;28;20188;-73
2021/03/03 07:19:49;;;;;;;43.53;28.20;;;4.80;99.90;;;;;;5025139;28;20188;-72
2021/03/03 07:22:26;;;;;;;38.17;27.47;;;4.80;99.90;;;;;;5025583;28;20260;-73
2021/03/03 07:24:54;;;;;;;33.00;23.10;;;4.90;99.90;;;;;;5030719;28;20215;-72
2021/03/03 07:27:20;;;;;;;33.93;22.80;;;4.90;99.90;;;;;;5009729;28;20191;-73
2021/03/03 07:29:49;;;;;;;37.53;25.37;;;4.90;99.90;;;;;;5016635;28;20267;-72
2021/03/03 07:32:16;;;;;;;37.70;26.77;;;5.10;99.90;;;;;;5027471;28;20539;-72
2021/03/03 07:34:45;;;;;;;35.17;24.63;;;5.20;99.90;;;;;;5030543;28;20202;-72
2021/03/03 07:37:11;;;;;;;35.80;23.37;;;5.40;99.90;;;;;;5018404;28;20187;-73
2021/03/03 07:39:40;;;;;;;29.47;22.73;;;5.50;99.90;;;;;;5028230;28;20183;-72
2021/03/03 07:42:10;;;;;;;30.37;21.73;;;5.40;99.90;;;;;;5027819;28;20206;-73
2021/03/03 07:44:41;;;;;;;29.57;21.10;;;5.50;99.90;;;;;;5029684;28;20692;-73
2021/03/03 07:47:07;;;;;;;30.17;19.87;;;5.70;99.70;;;;;;5023892;28;20183;-73
2021/03/03 07:49:35;;;;;;;24.70;19.77;;;5.70;98.80;;;;;;5024482;28;20187;-73
2021/03/03 07:52:01;;;;;;;26.70;19.60;;;5.70;98.20;;;;;;5021355;28;20181;-73
2021/03/03 07:54:28;;;;;;;22.10;19.37;;;5.70;99.20;;;;;;5027387;28;20571;-72
2021/03/03 07:56:54;;;;;;;28.00;20.97;;;5.70;99.90;;;;;;5026431;28;20245;-72
2021/03/03 07:59:21;;;;;;;35.03;20.60;;;5.80;99.90;;;;;;5014107;28;20598;-73
2021/03/03 08:01:50;;;;;;;26.10;20.20;;;5.90;99.90;;;;;;5023738;28;20278;-73
2021/03/03 08:04:36;;;;;;;29.77;19.40;;;6.10;99.90;;;;;;5027386;28;20229;-73
2021/03/03 08:07:22;;;;;;;26.60;19.57;;;6.20;99.80;;;;;;5018190;28;20176;-72
2021/03/03 08:10:19;;;;;;;25.40;19.97;;;6.50;99.10;;;;;;5021570;28;20174;-73
2021/03/03 08:13:07;;;;;;;25.37;19.10;;;6.60;99.30;;;;;;5013539;28;20652;-73
2021/03/03 08:15:38;;;;;;;25.53;18.37;;;6.70;99.00;;;;;;5025773;28;20685;-73
2021/03/03 08:18:26;;;;;;;48.40;29.53;;;6.70;97.60;;;;;;5020521;28;20681;-73
2021/03/03 08:21:07;;;;;;;41.57;26.53;;;6.60;97.50;;;;;;5023684;28;20195;-73
2021/03/03 08:23:32;;;;;;;46.03;30.73;;;6.60;99.30;;;;;;5011978;28;20192;-73
2021/03/03 08:25:59;;;;;;;32.83;22.67;;;6.70;98.80;;;;;;5024300;28;20678;-73
2021/03/03 08:28:36;;;;;;;29.30;18.57;;;6.80;99.00;;;;;;5013248;28;20271;-73
2021/03/03 08:31:14;;;;;;;34.80;20.20;;;6.90;97.70;;;;;;5022698;28;20187;-73
2021/03/03 08:33:59;;;;;;;23.30;17.63;;;6.90;98.10;;;;;;5023835;28;20267;-73
2021/03/03 08:36:25;;;;;;;34.33;23.03;;;7.10;98.30;;;;;;5017259;28;20813;-72
2021/03/03 08:38:53;;;;;;;36.70;23.47;;;7.30;98.10;;;;;;5010909;28;20183;-73
2021/03/03 08:41:19;;;;;;;24.83;18.63;;;7.50;98.60;;;;;;5020891;28;20200;-73
2021/03/03 08:43:49;;;;;;;24.03;18.63;;;7.60;96.90;;;;;;5024096;28;20259;-72
2021/03/03 08:46:20;;;;;;;22.57;18.23;;;7.70;96.40;;;;;;5024110;28;20591;-72
2021/03/03 08:49:06;;;;;;;24.03;17.37;;;7.80;97.00;;;;;;5025762;28;20182;-73
2021/03/03 08:51:34;;;;;;;23.07;18.70;;;7.80;96.20;;;;;;5012182;28;20211;-73
2021/03/03 08:54:04;;;;;;;32.17;18.57;;;7.80;97.50;;;;;;5013616;28;20251;-72
2021/03/03 08:56:40;;;;;;;33.87;18.50;;;7.80;96.10;;;;;;5016344;28;20204;-73
2021/03/03 08:59:27;;;;;;;29.73;18.17;;;7.80;96.00;;;;;;5014294;28;20888;-73
2021/03/03 09:01:54;;;;;;;19.17;16.63;;;7.70;95.80;;;;;;5015848;28;20642;-72
2021/03/03 09:04:21;;;;;;;23.50;16.97;;;7.70;95.90;;;;;;5020460;28;20208;-73
2021/03/03 09:06:49;;;;;;;26.23;19.53;;;7.80;96.40;;;;;;5017793;28;20183;-72
2021/03/03 09:09:15;;;;;;;24.73;20.33;;;8.00;97.10;;;;;;5017953;28;20554;-72
2021/03/03 09:11:40;;;;;;;32.10;20.63;;;8.10;97.40;;;;;;5018892;28;20183;-72
2021/03/03 09:14:06;;;;;;;32.80;22.70;;;8.30;98.20;;;;;;5025018;28;20203;-72
2021/03/03 09:16:32;;;;;;;26.73;19.87;;;8.50;97.80;;;;;;5014103;28;20189;-72
2021/03/03 09:19:10;;;;;;;29.97;19.47;;;8.70;96.90;;;;;;5012424;28;20184;-72
2021/03/03 09:21:36;;;;;;;26.70;19.93;;;8.90;96.50;;;;;;5027659;28;20341;-72
2021/03/03 09:24:10;;;;;;;24.33;18.47;;;9.10;96.80;;;;;;5016458;28;20302;-72
2021/03/03 09:26:37;;;;;;;23.80;18.13;;;9.20;94.50;;;;;;5018388;28;20649;-72
2021/03/03 09:29:03;;;;;;;23.10;17.07;;;9.10;92.80;;;;;;5017388;28;20655;-72
2021/03/03 09:31:30;;;;;;;20.17;17.57;;;9.00;93.10;;;;;;5015885;28;20549;-72
2021/03/03 09:33:55;;;;;;;24.10;18.77;;;8.90;93.90;;;;;;5019734;28;20388;-72
2021/03/03 09:36:21;;;;;;;21.70;16.43;;;8.80;94.20;;;;;;5021512;28;20204;-72
2021/03/03 09:38:55;;;;;;;22.27;17.63;;;8.70;93.60;;;;;;5018208;28;20223;-72
2021/03/03 09:41:21;;;;;;;25.40;18.13;;;8.70;94.80;;;;;;5015877;28;20197;-72
2021/03/03 09:44:05;;;;;;;22.57;17.13;;;8.70;95.30;;;;;;5021717;28;20718;-72
2021/03/03 09:46:59;;;;;;;20.60;17.40;;;8.70;94.60;;;;;;5015427;28;20705;-72
2021/03/03 09:49:31;;;;;;;29.23;18.67;;;8.90;94.30;;;;;;5013210;28;20189;-72
2021/03/03 09:51:58;;;;;;;23.30;17.17;;;9.00;94.50;;;;;;5010376;28;20191;-72
2021/03/03 09:54:34;;;;;;;26.20;17.23;;;9.30;94.40;;;;;;5017182;28;20204;-73
2021/03/03 09:57:04;;;;;;;21.87;17.00;;;9.40;93.50;;;;;;5013215;28;20189;-72
2021/03/03 09:59:31;;;;;;;22.90;17.93;;;9.60;93.60;;;;;;5017591;28;20195;-72
2021/03/03 10:01:58;;;;;;;25.33;18.50;;;9.70;93.40;;;;;;5013361;28;20230;-72
2021/03/03 10:04:25;;;;;;;20.80;16.60;;;9.90;93.70;;;;;;5019479;28;20295;-72
2021/03/03 10:06:52;;;;;;;22.17;16.80;;;10.00;93.10;;;;;;5020946;28;20698;-72
2021/03/03 10:09:18;;;;;;;25.37;17.47;;;10.00;92.90;;;;;;5020966;28;20307;-72
2021/03/03 10:11:44;;;;;;;21.00;17.10;;;10.20;92.80;;;;;;5019713;28;20184;-72
2021/03/03 10:14:10;;;;;;;20.27;17.03;;;10.30;92.30;;;;;;5017338;28;20204;-72
2021/03/03 10:16:35;;;;;;;21.03;16.30;;;10.50;91.70;;;;;;5021127;28;20264;-72
2021/03/03 10:19:04;;;;;;;22.77;16.47;;;10.70;92.60;;;;;;5019758;28;20192;-72
2021/03/03 10:21:30;;;;;;;22.93;16.97;;;10.90;92.50;;;;;;5023664;28;20195;-72
2021/03/03 10:23:56;;;;;;;20.17;16.43;;;11.10;92.10;;;;;;5024693;28;20197;-72
2021/03/03 10:26:43;;;;;;;21.87;16.07;;;11.10;90.90;;;;;;5033766;28;20195;-73
2021/03/03 10:29:09;;;;;;;22.80;16.40;;;11.30;91.20;;;;;;5019268;28;20196;-72
2021/03/03 10:31:34;;;;;;;19.70;16.47;;;11.50;90.40;;;;;;5021541;28;20181;-72
2021/03/03 10:34:11;;;;;;;24.17;18.17;;;11.60;89.50;;;;;;5026609;28;20291;-71
2021/03/03 10:36:42;;;;;;;21.57;16.77;;;11.60;88.80;;;;;;5015891;28;20245;-72
2021/03/03 10:39:09;;;;;;;29.90;24.40;;;11.60;89.10;;;;;;5024840;28;20972;-72
2021/03/03 10:41:36;;;;;;;26.40;17.63;;;11.70;87.30;;;;;;5022045;28;20259;-72
2021/03/03 10:44:06;;;;;;;22.10;16.90;;;11.80;88.20;;;;;;5030071;28;20212;-72
2021/03/03 10:46:32;;;;;;;21.17;16.80;;;11.90;88.40;;;;;;5016725;28;20263;-71
2021/03/03 10:49:13;;;;;;;23.83;18.50;;;12.10;86.90;;;;;;5023684;28;20185;-72
2021/03/03 10:51:39;;;;;;;25.13;17.97;;;12.20;87.10;;;;;;5015486;28;20199;-72
2021/03/03 10:54:07;;;;;;;27.20;17.55;;;12.50;87.50;;;;;;5024145;28;20211;-71
2021/03/03 10:56:34;;;;;;;23.30;16.67;;;12.60;88.10;;;;;;5023774;28;20181;-72
2021/03/03 10:59:06;;;;;;;23.05;16.30;;;12.60;85.40;;;;;;5016708;28;20239;-72
2021/03/03 11:01:43;;;;;;;22.75;16.85;;;12.70;84.40;;;;;;5026182;28;20854;-72
2021/03/03 11:04:09;;;;;;;21.73;16.85;;;12.90;84.40;;;;;;5029198;28;20199;-72
2021/03/03 11:06:35;;;;;;;27.50;16.83;;;13.00;85.70;;;;;;5023028;28;20255;-72
2021/03/03 11:09:15;;;;;;;22.23;15.98;;;13.20;85.00;;;;;;5025324;28;20263;-72
2021/03/03 11:11:52;;;;;;;18.40;16.30;;;13.40;85.50;;;;;;5028912;28;20184;-71
2021/03/03 11:14:18;;;;;;;20.50;16.17;;;13.50;82.10;;;;;;5025743;28;20255;-72
2021/03/03 11:16:45;;;;;;;17.98;15.68;;;13.60;83.70;;;;;;5021227;28;21045;-71
2021/03/03 11:19:10;;;;;;;21.88;16.48;;;13.80;81.50;;;;;;5001454;28;20206;-72
2021/03/03 11:21:36;;;;;;;18.55;15.43;;;13.90;80.50;;;;;;5024328;28;20200;-72
2021/03/03 11:24:02;;;;;;;21.85;16.52;;;14.10;81.60;;;;;;5021956;28;20267;-72
2021/03/03 11:26:28;;;;;;;22.38;16.60;;;14.10;82.00;;;;;;5019222;28;20619;-72
2021/03/03 11:28:54;;;;;;;17.10;15.30;;;14.20;78.40;;;;;;5015850;28;20196;-72
2021/03/03 11:31:20;;;;;;;19.02;15.02;;;14.30;81.80;;;;;;5024061;28;20204;-72
2021/03/03 11:33:46;;;;;;;18.02;14.52;;;14.30;77.30;;;;;;5019843;28;20210;-72
2021/03/03 11:36:11;;;;;;;22.40;15.48;;;14.50;77.00;;;;;;5018399;28;20180;-72
2021/03/03 11:38:37;;;;;;;21.38;15.25;;;14.70;77.40;;;;;;5015085;28;20554;-72
2021/03/03 11:41:03;;;;;;;20.45;15.25;;;14.70;77.20;;;;;;5023659;28;20684;-72
2021/03/03 11:43:28;;;;;;;18.48;13.98;;;14.90;74.90;;;;;;5020855;28;20190;-72
2021/03/03 11:45:54;;;;;;;21.60;14.43;;;14.80;71.20;;;;;;5027572;28;20291;-72
2021/03/03 11:48:20;;;;;;;17.27;14.90;;;14.80;75.60;;;;;;5020555;28;20180;-72
2021/03/03 11:50:45;;;;;;;17.52;14.65;;;14.80;76.50;;;;;;5017964;28;20180;-72
2021/03/03 11:53:11;;;;;;;18.13;14.55;;;15.00;72.20;;;;;;5020194;28;20200;-72
2021/03/03 11:55:36;;;;;;;18.00;14.82;;;15.00;70.00;;;;;;5024416;28;20430;-72
2021/03/03 11:58:02;;;;;;;17.77;14.27;;;15.20;70.40;;;;;;5026382;28;20770;-72
2021/03/03 12:00:29;;;;;;;18.23;14.43;;;15.20;69.50;;;;;;5012190;28;20267;-72
2021/03/03 12:02:54;;;;;;;22.90;15.75;;;15.10;69.40;;;;;;5015264;28;20588;-72
2021/03/03 12:05:20;;;;;;;18.33;14.48;;;15.20;68.40;;;;;;5019788;28;20193;-72
2021/03/03 12:07:46;;;;;;;24.30;14.38;;;15.30;68.60;;;;;;5016409;28;20644;-72
2021/03/03 12:10:12;;;;;;;20.52;14.13;;;15.20;64.00;;;;;;5017301;28;20185;-72
2021/03/03 12:12:38;;;;;;;19.65;13.93;;;15.30;68.30;;;;;;5020273;28;20185;-72
2021/03/03 12:15:05;;;;;;;15.30;13.75;;;15.20;64.60;;;;;;5012077;28;20204;-74
2021/03/03 12:17:31;;;;;;;22.65;14.13;;;15.10;65.90;;;;;;5017981;28;20829;-73
2021/03/03 12:19:56;;;;;;;16.65;13.57;;;15.00;68.40;;;;;;5019969;28;20212;-74
2021/03/03 12:22:22;;;;;;;18.02;13.70;;;15.00;66.60;;;;;;5016930;28;20239;-72
2021/03/03 12:24:47;;;;;;;16.73;13.15;;;15.20;70.40;;;;;;5023073;28;20201;-73
2021/03/03 12:27:13;;;;;;;17.80;13.05;;;15.20;65.90;;;;;;5019360;28;20187;-73
2021/03/03 12:29:39;;;;;;;16.15;13.55;;;15.30;61.70;;;;;;5018815;28;20184;-73
2021/03/03 12:32:05;;;;;;;17.30;13.57;;;15.50;68.80;;;;;;5021304;28;20181;-72
2021/03/03 12:34:31;;;;;;;20.73;13.77;;;15.60;65.70;;;;;;5020209;28;20204;-72
2021/03/03 12:36:57;;;;;;;23.17;14.38;;;15.50;63.10;;;;;;5012342;28;20180;-72
2021/03/03 12:39:22;;;;;;;20.20;13.85;;;15.60;68.50;;;;;;5020384;28;20192;-72
2021/03/03 12:41:48;;;;;;;20.80;13.48;;;15.60;61.60;;;;;;5018200;28;20290;-72
2021/03/03 12:44:13;;;;;;;16.90;14.02;;;15.60;61.10;;;;;;5022024;28;20258;-73